createdAt,value
2022-12-24T00:02:52.674Z,99588.29
2022-12-24T00:07:56.068Z,99578.14
2022-12-24T00:12:59.337Z,99584.08
2022-12-24T00:18:02.839Z,99596.23
2022-12-24T00:23:06.715Z,99601.91
2022-12-24T00:28:10.783Z,99596.23
2022-12-24T00:33:17.083Z,99573.31
2022-12-24T00:38:23.002Z,99587.10
2022-12-24T00:43:26.359Z,99584.77
2022-12-24T00:48:29.706Z,99559.98
2022-12-24T00:53:32.972Z,99562.23
2022-12-24T00:58:36.638Z,99563.72
2022-12-24T01:03:40.370Z,99568.61
2022-12-24T01:08:44.005Z,99572.74
2022-12-24T01:13:47.776Z,99576.46
2022-12-24T01:18:51.493Z,99582.13
2022-12-24T01:23:54.810Z,99587.36
2022-12-24T01:28:58.022Z,99588.09
2022-12-24T01:34:01.380Z,99593.35
2022-12-24T01:39:05.215Z,99594.89
2022-12-24T01:44:35.629Z,99579.94
2022-12-24T01:49:45.247Z,99594.48
2022-12-24T01:54:52.891Z,99594.42
2022-12-24T02:00:02.040Z,99594.31
2022-12-24T02:05:21.007Z,99594.45
2022-12-24T02:10:24.428Z,99587.73
2022-12-24T02:15:35.487Z,99591.73
2022-12-24T02:21:20.599Z,99591.11
2022-12-24T02:26:27.144Z,99589.85
2022-12-24T02:31:36.197Z,99579.97
2022-12-24T02:37:07.003Z,99581.79
2022-12-24T02:42:14.079Z,99584.10
2022-12-24T02:47:18.912Z,99580.71
2022-12-24T02:52:36.180Z,99582.44
2022-12-24T02:58:00.554Z,99585.17
2022-12-24T03:03:21.369Z,99577.27
2022-12-24T03:08:36.614Z,99579.30
2022-12-24T03:13:41.748Z,99584.95
2022-12-24T03:18:48.170Z,99587.48
2022-12-24T03:23:51.688Z,99584.67
2022-12-24T03:28:55.580Z,99584.13
2022-12-24T03:33:58.880Z,99589.20
2022-12-24T03:39:02.409Z,99589.27
2022-12-24T03:44:05.723Z,99591.03
2022-12-24T03:49:09.204Z,99593.48
2022-12-24T03:54:12.460Z,99597.79
2022-12-24T03:59:15.960Z,99596.64
2022-12-24T04:04:19.326Z,99597.05
2022-12-24T04:09:22.788Z,99593.94
2022-12-24T04:14:26.149Z,99596.92
2022-12-24T04:19:29.634Z,99593.45
2022-12-24T04:24:33.032Z,99595.63
2022-12-24T04:29:36.443Z,99587.52
2022-12-24T04:34:40.120Z,99585.94
2022-12-24T04:39:43.447Z,99589.28
2022-12-24T04:44:46.754Z,99588.21
2022-12-24T04:49:50.728Z,99589.78
2022-12-24T04:54:54.204Z,99591.68
2022-12-24T04:59:57.682Z,99595.56
2022-12-24T05:05:01.086Z,99596.34
2022-12-24T05:10:04.857Z,99593.55
2022-12-24T05:15:08.845Z,99601.69
2022-12-24T05:20:12.435Z,99605.61
2022-12-24T05:25:34.747Z,99601.20
2022-12-24T05:30:38.054Z,99604.63
2022-12-24T05:35:41.505Z,99607.45
2022-12-24T05:40:44.846Z,99608.80
2022-12-24T05:45:48.749Z,99614.66
2022-12-24T05:50:53.048Z,99613.36
2022-12-24T05:56:06.594Z,99611.73
2022-12-24T06:01:11.278Z,99617.41
2022-12-24T06:06:21.305Z,99628.91
2022-12-24T06:11:27.269Z,99635.67
2022-12-24T06:16:31.097Z,99641.90
2022-12-24T06:21:34.915Z,99641.42
2022-12-24T06:26:38.725Z,99637.23
2022-12-24T06:31:42.133Z,99641.00
2022-12-24T06:36:45.691Z,99641.95
2022-12-24T06:41:49.044Z,99648.38
2022-12-24T06:46:52.497Z,99655.42
2022-12-24T06:51:56.150Z,99654.93
2022-12-24T06:56:59.650Z,99657.75
2022-12-24T07:02:03.301Z,99662.91
2022-12-24T07:07:06.726Z,99668.51
2022-12-24T07:12:10.049Z,99674.04
2022-12-24T07:17:13.592Z,99673.73
2022-12-24T07:22:16.955Z,99679.48
2022-12-24T07:27:20.906Z,99687.90
2022-12-24T07:32:24.232Z,99689.66
2022-12-24T07:37:27.519Z,99693.34
2022-12-24T07:42:30.880Z,99702.09
2022-12-24T07:47:35.676Z,99702.60
2022-12-24T07:52:38.987Z,99707.56
2022-12-24T07:57:42.354Z,99709.07
2022-12-24T08:02:46.322Z,99711.49
2022-12-24T08:07:49.850Z,99723.23
2022-12-24T08:12:53.279Z,99722.20
2022-12-24T08:17:56.682Z,99733.20
2022-12-24T08:23:00.145Z,99738.50
2022-12-24T08:28:03.860Z,99747.66
2022-12-24T08:33:07.110Z,99760.41
2022-12-24T08:38:10.601Z,99765.56
2022-12-24T08:43:13.812Z,99771.36
2022-12-24T08:48:17.749Z,99771.25
2022-12-24T08:53:21.369Z,99771.66
2022-12-24T08:58:24.860Z,99770.52
2022-12-24T09:03:28.520Z,99772.86
2022-12-24T09:08:32.793Z,99775.58
2022-12-24T09:13:36.434Z,99782.15
2022-12-24T09:18:40.399Z,99792.09
2022-12-24T09:23:45.878Z,99797.09
2022-12-24T09:28:50.680Z,99799.39
2022-12-24T09:33:54.138Z,99802.34
2022-12-24T09:38:57.673Z,99807.78
2022-12-24T09:44:38.795Z,99810.93
2022-12-24T09:49:45.503Z,99805.59
2022-12-24T09:55:01.713Z,99807.77
2022-12-24T10:00:17.276Z,99817.27
2022-12-24T10:05:32.820Z,99829.13
2022-12-24T10:10:41.244Z,99834.95
2022-12-24T10:15:54.123Z,99841.22
2022-12-24T10:21:14.964Z,99849.14
2022-12-24T10:26:38.238Z,99853.48
2022-12-24T10:31:57.664Z,99842.48
2022-12-24T10:37:03.194Z,99864.35
2022-12-24T10:42:07.787Z,99868.05
2022-12-24T10:47:11.466Z,99868.11
2022-12-24T10:52:19.783Z,99870.17
2022-12-24T10:57:26.183Z,99876.11
2022-12-24T11:02:35.319Z,99882.18
2022-12-24T11:07:38.829Z,99883.85
2022-12-24T11:13:12.681Z,99889.61
2022-12-24T11:18:16.164Z,99893.39
2022-12-24T11:23:20.086Z,99901.09
2022-12-24T11:28:30.126Z,99902.29
2022-12-24T11:33:47.317Z,99898.39
2022-12-24T11:38:56.343Z,99922.79
2022-12-24T11:44:04.034Z,99930.60
2022-12-24T11:49:15.706Z,99938.95
2022-12-24T11:54:30.080Z,99947.83
2022-12-24T11:59:45.298Z,99954.04
2022-12-24T12:04:57.567Z,99962.67
2022-12-24T12:10:10.758Z,99971.35
2022-12-24T12:15:22.245Z,99975.74
2022-12-24T12:20:41.198Z,99981.85
2022-12-24T12:25:47.408Z,99991.52
2022-12-24T12:31:03.146Z,100008.33
2022-12-24T12:36:10.385Z,100013.23
2022-12-24T12:41:32.517Z,100013.08
2022-12-24T12:47:02.202Z,100020.54
2022-12-24T12:52:28.894Z,100026.20
2022-12-24T12:57:37.292Z,100038.46
2022-12-24T13:02:51.288Z,100047.25
2022-12-24T13:08:23.997Z,100058.73
2022-12-24T13:13:57.185Z,100070.52
2022-12-24T13:19:04.005Z,100073.94
2022-12-24T13:24:13.335Z,100062.96
2022-12-24T13:29:41.444Z,100079.70
2022-12-24T13:34:49.950Z,100096.13
2022-12-24T13:40:16.275Z,100109.05
2022-12-24T13:45:29.259Z,100112.91
2022-12-24T13:50:56.920Z,100130.03
2022-12-24T13:56:10.880Z,100139.90
2022-12-24T14:01:39.541Z,100144.16
2022-12-24T14:06:43.455Z,100149.11
2022-12-24T14:12:02.012Z,100156.41
2022-12-24T14:17:14.796Z,100172.97
2022-12-24T14:22:29.128Z,100177.77
2022-12-24T14:27:39.037Z,100182.38
2022-12-24T14:32:42.684Z,100189.97
2022-12-24T14:37:51.034Z,100198.53
2022-12-24T14:43:25.222Z,100212.46
2022-12-24T14:48:40.472Z,100225.36
2022-12-24T14:54:21.252Z,100234.58
2022-12-24T14:59:25.266Z,100246.37
2022-12-24T15:04:28.645Z,100248.70
2022-12-24T15:09:34.201Z,100257.59
2022-12-24T15:14:44.179Z,100262.80
2022-12-24T15:19:52.859Z,100278.31
2022-12-24T15:24:56.541Z,100286.14
2022-12-24T15:30:14.349Z,100284.97
2022-12-24T15:35:40.678Z,100292.31
2022-12-24T15:40:49.487Z,100298.54
2022-12-24T15:45:53.462Z,100298.58
2022-12-24T15:51:03.072Z,100299.85
2022-12-24T15:56:11.312Z,100305.02
2022-12-24T16:01:17.700Z,100308.94
2022-12-24T16:06:22.573Z,100321.51
2022-12-24T16:11:37.003Z,100319.51
2022-12-24T16:16:44.180Z,100333.84
2022-12-24T16:21:53.389Z,100336.13
2022-12-24T16:26:58.313Z,100337.80
2022-12-24T16:32:02.027Z,100344.20
2022-12-24T16:37:05.674Z,100350.16
2022-12-24T16:42:42.598Z,100356.21
2022-12-24T16:47:45.934Z,100360.69
2022-12-24T16:52:49.260Z,100368.50
2022-12-24T16:57:53.015Z,100372.05
2022-12-24T17:02:57.559Z,100381.76
2022-12-24T17:08:01.682Z,100384.98
2022-12-24T17:13:05.697Z,100386.06
2022-12-24T17:18:09.033Z,100397.27
2022-12-24T17:23:12.438Z,100387.45
2022-12-24T17:28:16.199Z,100409.13
2022-12-24T17:33:19.636Z,100419.16
2022-12-24T17:38:23.010Z,100422.89
2022-12-24T17:43:26.465Z,100428.73
2022-12-24T17:48:30.226Z,100425.88
2022-12-24T17:53:35.454Z,100426.68
2022-12-24T17:58:39.907Z,100434.93
2022-12-24T18:03:43.339Z,100448.52
2022-12-24T18:08:48.087Z,100452.85
2022-12-24T18:13:51.905Z,100459.88
2022-12-24T18:18:56.321Z,100460.57
2022-12-24T18:24:00.498Z,100468.05
2022-12-24T18:29:06.664Z,100472.44
2022-12-24T18:34:13.121Z,100469.30
2022-12-24T18:39:27.195Z,100475.95
2022-12-24T18:44:43.734Z,100483.71
2022-12-24T18:49:47.101Z,100478.77
2022-12-24T18:54:51.048Z,100494.09
2022-12-24T18:59:55.114Z,100490.14
2022-12-24T19:04:58.492Z,100514.19
2022-12-24T19:10:01.971Z,100519.70
2022-12-24T19:15:07.040Z,100534.54
2022-12-24T19:20:10.780Z,100545.40
2022-12-24T19:25:14.029Z,100535.70
2022-12-24T19:30:17.426Z,100554.01
2022-12-24T19:35:20.675Z,100551.82
2022-12-24T19:40:24.110Z,100552.52
2022-12-24T19:45:27.584Z,100542.50
2022-12-24T19:50:32.446Z,100546.83
2022-12-24T19:55:36.019Z,100546.77
2022-12-24T20:00:39.233Z,100552.45
2022-12-24T20:05:42.870Z,100560.77
2022-12-24T20:10:46.546Z,100575.40
2022-12-24T20:15:50.352Z,100585.86
2022-12-24T20:20:59.166Z,100591.37
2022-12-24T20:26:05.276Z,100597.63
2022-12-24T20:31:23.965Z,100598.27
2022-12-24T20:36:29.698Z,100591.38
2022-12-24T20:41:33.300Z,100591.91
2022-12-24T20:46:37.763Z,100594.45
2022-12-24T20:51:41.119Z,100573.04
2022-12-24T20:56:45.040Z,100607.27
2022-12-24T21:02:01.478Z,100614.60
2022-12-24T21:07:05.439Z,100616.77
2022-12-24T21:12:30.714Z,100620.30
2022-12-24T21:17:33.987Z,100622.51
2022-12-24T21:22:37.378Z,100628.80
2022-12-24T21:27:41.419Z,100629.05
2022-12-24T21:32:44.634Z,100632.16
2022-12-24T21:37:49.893Z,100617.96
2022-12-24T21:42:53.744Z,100623.23
2022-12-24T21:47:57.112Z,100628.06
2022-12-24T21:53:19.555Z,100629.15
2022-12-24T21:58:23.363Z,100643.59
2022-12-24T22:03:26.618Z,100644.71
2022-12-24T22:08:49.032Z,100633.95
2022-12-24T22:13:52.514Z,100639.21
2022-12-24T22:18:56.016Z,100644.80
2022-12-24T22:23:59.739Z,100649.67
2022-12-24T22:29:06.288Z,100644.70
2022-12-24T22:34:10.168Z,100642.56
2022-12-24T22:39:14.415Z,100646.34
2022-12-24T22:44:18.049Z,100652.01
2022-12-24T22:49:21.376Z,100653.30
2022-12-24T22:54:25.295Z,100650.55
2022-12-24T22:59:28.673Z,100651.19
2022-12-24T23:04:40.137Z,100650.55
2022-12-24T23:09:43.633Z,100651.83
2022-12-24T23:14:59.022Z,100646.31
2022-12-24T23:20:04.017Z,100648.40
2022-12-24T23:25:08.267Z,100658.86
2022-12-24T23:30:11.972Z,100659.44
2022-12-24T23:35:15.531Z,100661.34
2022-12-24T23:40:19.219Z,100659.39
2022-12-24T23:45:22.756Z,100645.89
2022-12-24T23:50:26.750Z,100652.95
2022-12-24T23:55:30.230Z,100683.11
